Time;durP1;ratioP1;P1;durP2;ratioP2;P2;SDS_P1;SDS_P2;PMS_P1;PMS_P2;Temp;Humidity;BMP_temperature;BMP_pressure;BME280_temperature;BME280_humidity;BME280_pressure;Samples;Min_cycle;Max_cycle;Signal;HPM_P1;HPM_P2
2021/01/24 00:00:33;;;;;;;5.45;4.93;;;;;;;;;;5065333;28;20247;-48
2021/01/24 00:02:59;;;;;;;5.00;4.50;;;;;;;;;;5062948;28;20182;-47
2021/01/24 00:05:25;;;;;;;5.20;4.70;;;;;;;;;;5063016;28;20186;-48
2021/01/24 00:07:51;;;;;;;5.28;4.78;;;;;;;;;;5065750;28;20266;-48
2021/01/24 00:10:17;;;;;;;5.07;4.57;;;;;;;;;;5073141;28;20174;-47
2021/01/24 00:12:43;;;;;;;5.13;4.63;;;;;;;;;;5071420;28;20200;-47
2021/01/24 00:15:09;;;;;;;5.30;4.28;;;;;;;;;;5063161;28;20190;-47
2021/01/24 00:17:35;;;;;;;5.22;4.72;;;;;;;;;;5061514;28;20550;-47
2021/01/24 00:20:01;;;;;;;5.13;4.63;;;;;;;;;;5054555;28;20233;-47
2021/01/24 00:22:28;;;;;;;5.05;4.60;;;;;;;;;;5061367;28;20187;-47
2021/01/24 00:24:54;;;;;;;5.18;4.65;;;;;;;;;;5059960;28;20510;-47
2021/01/24 00:27:20;;;;;;;5.18;4.68;;;;;;;;;;5053118;28;20263;-48
2021/01/24 00:29:46;;;;;;;4.60;4.20;;;;;;;;;;5053464;28;20191;-48
2021/01/24 00:32:13;;;;;;;5.22;4.72;;;;;;;;;;5059278;28;20220;-48
2021/01/24 00:34:39;;;;;;;4.60;4.18;;;;;;;;;;5062750;28;20581;-48
2021/01/24 00:37:05;;;;;;;5.60;4.97;;;;;;;;;;5055048;28;20210;-47
2021/01/24 00:39:32;;;;;;;4.43;4.03;;;;;;;;;;5062390;28;20209;-47
2021/01/24 00:41:58;;;;;;;5.20;4.70;;;;;;;;;;5077337;28;20170;-48
2021/01/24 00:44:24;;;;;;;5.05;4.45;;;;;;;;;;5067809;28;20558;-47
2021/01/24 00:46:50;;;;;;;5.22;4.68;;;;;;;;;;5067102;28;20229;-48
2021/01/24 00:49:16;;;;;;;4.60;4.20;;;;;;;;;;5058725;28;20198;-48
2021/01/24 00:51:42;;;;;;;4.93;4.43;;;;;;;;;;5073266;28;20448;-47
2021/01/24 00:54:08;;;;;;;5.40;4.90;;;;;;;;;;5062671;28;20221;-47
2021/01/24 00:56:34;;;;;;;4.90;4.40;;;;;;;;;;5061159;28;20610;-47
2021/01/24 00:59:00;;;;;;;4.97;4.47;;;;;;;;;;5074329;28;20206;-47
2021/01/24 01:01:26;;;;;;;4.43;4.03;;;;;;;;;;5060764;28;20203;-47
2021/01/24 01:03:52;;;;;;;4.90;4.32;;;;;;;;;;5065945;28;20558;-48
2021/01/24 01:06:18;;;;;;;4.68;4.20;;;;;;;;;;5055747;28;20193;-47
2021/01/24 01:08:44;;;;;;;5.00;4.50;;;;;;;;;;5056979;28;20179;-47
2021/01/24 01:11:10;;;;;;;5.03;4.50;;;;;;;;;;5057227;28;20440;-47
2021/01/24 01:13:36;;;;;;;4.70;4.30;;;;;;;;;;5062478;28;20285;-47
2021/01/24 01:16:02;;;;;;;5.13;4.63;;;;;;;;;;5061692;28;20601;-47
2021/01/24 01:18:29;;;;;;;4.45;4.00;;;;;;;;;;5075792;28;20228;-47
2021/01/24 01:20:55;;;;;;;5.00;4.50;;;;;;;;;;5075857;28;20228;-47
2021/01/24 01:23:21;;;;;;;4.75;4.32;;;;;;;;;;5071933;28;20179;-48
2021/01/24 01:25:48;;;;;;;4.50;4.10;;;;;;;;;;5060292;28;20258;-47
2021/01/24 01:28:14;;;;;;;4.25;3.85;;;;;;;;;;5061868;28;20198;-47
2021/01/24 01:30:40;;;;;;;5.13;4.55;;;;;;;;;;5072999;28;20469;-47
2021/01/24 01:33:06;;;;;;;4.57;4.18;;;;;;;;;;5062157;28;20191;-47
2021/01/24 01:35:32;;;;;;;4.78;4.28;;;;;;;;;;5056459;28;20270;-47
2021/01/24 01:37:58;;;;;;;4.43;4.03;;;;;;;;;;5059947;28;20187;-47
2021/01/24 01:40:24;;;;;;;5.15;4.65;;;;;;;;;;5055870;28;20471;-47
2021/01/24 01:42:50;;;;;;;4.28;3.88;;;;;;;;;;5057040;28;20194;-47
2021/01/24 01:45:16;;;;;;;4.60;4.10;;;;;;;;;;5067352;28;20210;-47
2021/01/24 01:47:42;;;;;;;4.35;3.95;;;;;;;;;;5075008;28;20193;-47
2021/01/24 01:50:08;;;;;;;4.40;4.00;;;;;;;;;;5066781;28;20187;-47
2021/01/24 01:52:34;;;;;;;4.70;4.20;;;;;;;;;;5055340;28;20187;-47
2021/01/24 01:55:00;;;;;;;4.47;4.03;;;;;;;;;;5064611;28;20218;-47
2021/01/24 01:57:26;;;;;;;4.63;4.22;;;;;;;;;;5073725;28;20213;-47
2021/01/24 01:59:52;;;;;;;4.70;4.30;;;;;;;;;;5074539;28;20626;-48
2021/01/24 02:02:25;;;;;;;4.68;4.28;;;;;;;;;;5074669;28;20236;-48
2021/01/24 02:04:59;;;;;;;4.40;4.00;;;;;;;;;;5060754;28;20183;-47
2021/01/24 02:07:34;;;;;;;4.45;4.05;;;;;;;;;;5064821;28;20193;-48
2021/01/24 02:10:33;;;;;;;4.65;4.25;;;;;;;;;;5074919;28;20561;-47
2021/01/24 02:13:17;;;;;;;4.00;3.60;;;;;;;;;;5032306;28;20203;-47
2021/01/24 02:15:45;;;;;;;4.38;3.97;;;;;;;;;;5064503;28;20191;-47
2021/01/24 02:18:11;;;;;;;4.20;3.80;;;;;;;;;;5059351;28;20237;-48
2021/01/24 02:20:42;;;;;;;4.85;4.45;;;;;;;;;;5061994;28;20183;-47
2021/01/24 02:23:10;;;;;;;4.25;3.85;;;;;;;;;;5069672;28;20271;-47
2021/01/24 02:25:44;;;;;;;4.45;4.05;;;;;;;;;;5054544;28;20179;-47
2021/01/24 02:28:29;;;;;;;4.18;3.75;;;;;;;;;;5055931;28;20207;-47
2021/01/24 02:30:55;;;;;;;4.03;3.72;;;;;;;;;;5056663;28;20554;-47
2021/01/24 02:33:26;;;;;;;4.00;3.60;;;;;;;;;;5058455;28;20179;-47
2021/01/24 02:35:53;;;;;;;4.15;3.75;;;;;;;;;;5074111;28;20196;-48
2021/01/24 02:38:20;;;;;;;4.20;3.80;;;;;;;;;;5058764;28;20286;-47
2021/01/24 02:40:46;;;;;;;4.40;4.00;;;;;;;;;;5067007;28;20183;-47
2021/01/24 02:43:13;;;;;;;4.05;3.65;;;;;;;;;;5072762;28;20188;-47
2021/01/24 02:45:46;;;;;;;4.25;3.85;;;;;;;;;;5071289;28;20186;-47
2021/01/24 02:48:13;;;;;;;4.05;3.67;;;;;;;;;;5074458;28;20194;-47
2021/01/24 02:50:40;;;;;;;3.70;3.40;;;;;;;;;;5061243;28;20191;-47
2021/01/24 02:53:06;;;;;;;3.67;3.38;;;;;;;;;;5069693;28;20232;-48
2021/01/24 02:55:32;;;;;;;4.22;3.72;;;;;;;;;;5055922;28;20191;-47
2021/01/24 02:57:58;;;;;;;3.80;3.50;;;;;;;;;;5068586;28;20210;-48
2021/01/24 03:00:25;;;;;;;3.67;3.38;;;;;;;;;;5072103;28;20257;-47
2021/01/24 03:02:51;;;;;;;4.78;4.38;;;;;;;;;;5053844;28;20233;-47
2021/01/24 03:05:17;;;;;;;3.65;3.35;;;;;;;;;;5070019;28;20178;-48
2021/01/24 03:07:44;;;;;;;3.50;3.20;;;;;;;;;;5060314;28;20237;-48
2021/01/24 03:10:11;;;;;;;3.58;3.28;;;;;;;;;;5074353;28;20179;-48
2021/01/24 03:12:42;;;;;;;3.88;3.47;;;;;;;;;;5062863;28;20790;-47
2021/01/24 03:15:09;;;;;;;3.53;3.22;;;;;;;;;;5058506;28;20187;-47
2021/01/24 03:17:36;;;;;;;3.75;3.40;;;;;;;;;;5055664;28;20228;-47
2021/01/24 03:20:04;;;;;;;3.63;3.33;;;;;;;;;;5067610;28;20293;-47
2021/01/24 03:22:30;;;;;;;3.63;3.33;;;;;;;;;;5064471;28;20221;-47
2021/01/24 03:24:57;;;;;;;3.55;3.25;;;;;;;;;;5067257;28;20185;-47
2021/01/24 03:27:23;;;;;;;3.78;3.40;;;;;;;;;;5073952;28;20224;-47
2021/01/24 03:29:49;;;;;;;3.10;2.90;;;;;;;;;;5074170;28;20174;-47
2021/01/24 03:32:16;;;;;;;3.95;3.45;;;;;;;;;;5066357;28;20185;-47
2021/01/24 03:34:42;;;;;;;3.75;3.35;;;;;;;;;;5064848;28;20190;-47
2021/01/24 03:37:08;;;;;;;3.40;3.10;;;;;;;;;;5064458;28;20202;-47
2021/01/24 03:39:34;;;;;;;3.63;3.33;;;;;;;;;;5053590;28;20249;-47
2021/01/24 03:42:00;;;;;;;3.63;3.33;;;;;;;;;;5058227;28;20188;-47
2021/01/24 03:44:26;;;;;;;3.08;2.80;;;;;;;;;;5064246;28;20183;-47
2021/01/24 03:46:52;;;;;;;3.40;3.10;;;;;;;;;;5065203;28;20190;-47
2021/01/24 03:49:18;;;;;;;2.75;2.55;;;;;;;;;;5069684;28;20187;-47
2021/01/24 03:51:44;;;;;;;3.17;2.88;;;;;;;;;;5063199;28;20553;-47
2021/01/24 03:54:10;;;;;;;3.03;2.83;;;;;;;;;;5066256;28;20197;-47
2021/01/24 03:56:36;;;;;;;3.00;2.78;;;;;;;;;;5053349;28;20174;-47
2021/01/24 03:59:02;;;;;;;3.30;3.00;;;;;;;;;;5054012;28;20244;-47
2021/01/24 04:01:29;;;;;;;3.00;2.80;;;;;;;;;;5054120;28;20187;-47
2021/01/24 04:03:55;;;;;;;3.65;3.35;;;;;;;;;;5070359;28;20186;-47
2021/01/24 04:06:21;;;;;;;3.53;2.55;;;;;;;;;;5070403;28;20516;-47
2021/01/24 04:08:47;;;;;;;2.70;2.50;;;;;;;;;;5054071;28;20302;-47
2021/01/24 04:11:13;;;;;;;3.30;3.03;;;;;;;;;;5072217;28;20208;-47
2021/01/24 04:13:39;;;;;;;3.08;2.78;;;;;;;;;;5055621;28;20187;-50
2021/01/24 04:16:05;;;;;;;3.25;2.95;;;;;;;;;;5052896;28;20189;-47
2021/01/24 04:18:31;;;;;;;3.10;2.90;;;;;;;;;;5052802;28;20495;-47
2021/01/24 04:20:57;;;;;;;3.50;2.97;;;;;;;;;;5069354;28;20184;-47
2021/01/24 04:23:23;;;;;;;2.90;2.70;;;;;;;;;;5058243;28;20811;-47
2021/01/24 04:25:49;;;;;;;3.00;2.80;;;;;;;;;;5052924;28;20185;-48
2021/01/24 04:28:15;;;;;;;2.70;2.47;;;;;;;;;;5068113;28;20208;-48
2021/01/24 04:30:41;;;;;;;2.80;2.60;;;;;;;;;;5059197;28;20180;-47
2021/01/24 04:33:07;;;;;;;2.70;2.50;;;;;;;;;;5064978;28;20193;-47
2021/01/24 04:35:34;;;;;;;3.08;2.78;;;;;;;;;;5053905;28;20248;-47
2021/01/24 04:38:00;;;;;;;3.10;2.70;;;;;;;;;;5052949;28;20571;-47
2021/01/24 04:40:26;;;;;;;2.95;2.75;;;;;;;;;;5064260;28;20183;-49
2021/01/24 04:42:52;;;;;;;2.42;2.25;;;;;;;;;;5062616;28;20207;-47
2021/01/24 04:45:19;;;;;;;2.85;2.65;;;;;;;;;;5052388;28;20187;-47
2021/01/24 04:47:46;;;;;;;3.10;2.80;;;;;;;;;;5056276;28;20174;-47
2021/01/24 04:50:12;;;;;;;2.60;2.40;;;;;;;;;;5070919;28;20278;-47
2021/01/24 04:52:38;;;;;;;2.67;2.47;;;;;;;;;;5069464;28;20190;-47
2021/01/24 04:55:06;;;;;;;2.08;1.98;;;;;;;;;;5059084;28;20187;-47
2021/01/24 04:57:32;;;;;;;2.40;2.20;;;;;;;;;;5062060;28;20840;-47
2021/01/24 04:59:58;;;;;;;2.55;2.35;;;;;;;;;;5065354;28;20211;-48
2021/01/24 05:02:24;;;;;;;2.65;2.45;;;;;;;;;;5060323;28;20477;-48
2021/01/24 05:04:50;;;;;;;2.47;2.28;;;;;;;;;;5072059;28;20178;-48
2021/01/24 05:07:17;;;;;;;2.35;2.17;;;;;;;;;;5071167;28;20458;-48
2021/01/24 05:09:46;;;;;;;2.75;2.55;;;;;;;;;;5053250;28;20184;-48
2021/01/24 05:12:12;;;;;;;2.45;2.25;;;;;;;;;;5055064;28;20851;-48
2021/01/24 05:14:38;;;;;;;2.25;2.15;;;;;;;;;;5060431;28;20187;-48
2021/01/24 05:17:04;;;;;;;2.42;2.22;;;;;;;;;;5053106;28;20191;-48
2021/01/24 05:19:32;;;;;;;2.70;2.50;;;;;;;;;;5056057;28;20578;-48
2021/01/24 05:21:58;;;;;;;2.60;2.40;;;;;;;;;;5061725;28;20178;-48
2021/01/24 05:24:24;;;;;;;2.50;2.30;;;;;;;;;;5058918;28;20249;-48
2021/01/24 05:26:51;;;;;;;2.55;2.35;;;;;;;;;;5054916;28;20443;-48
2021/01/24 05:29:23;;;;;;;2.97;2.58;;;;;;;;;;5056318;28;20186;-49
2021/01/24 05:31:50;;;;;;;3.05;2.70;;;;;;;;;;5059921;28;20225;-48
2021/01/24 05:34:17;;;;;;;2.63;2.42;;;;;;;;;;5065087;28;20205;-48
2021/01/24 05:36:46;;;;;;;2.55;2.35;;;;;;;;;;5069749;28;20207;-48
2021/01/24 05:39:13;;;;;;;2.63;2.42;;;;;;;;;;5056357;28;20203;-48
2021/01/24 05:41:39;;;;;;;2.50;2.30;;;;;;;;;;5056158;28;20171;-48
2021/01/24 05:44:12;;;;;;;3.00;2.78;;;;;;;;;;5064572;28;20183;-48
2021/01/24 05:46:38;;;;;;;2.83;2.63;;;;;;;;;;5073682;28;20543;-48
2021/01/24 05:49:04;;;;;;;2.70;2.50;;;;;;;;;;5073078;28;20278;-48
2021/01/24 05:51:30;;;;;;;2.83;2.63;;;;;;;;;;5056314;28;20175;-48
2021/01/24 05:53:59;;;;;;;2.67;2.47;;;;;;;;;;5064742;28;20175;-49
2021/01/24 05:56:26;;;;;;;2.70;2.50;;;;;;;;;;5067945;28;20193;-48
2021/01/24 05:58:55;;;;;;;2.53;2.33;;;;;;;;;;5065007;28;20222;-48
2021/01/24 06:01:22;;;;;;;3.20;2.58;;;;;;;;;;5061223;28;20940;-47
2021/01/24 06:03:48;;;;;;;2.63;2.42;;;;;;;;;;5059261;28;20194;-48
2021/01/24 06:06:14;;;;;;;2.40;2.20;;;;;;;;;;5074805;28;20198;-48
2021/01/24 06:08:41;;;;;;;2.35;2.15;;;;;;;;;;5056320;28;20187;-48
2021/01/24 06:11:07;;;;;;;2.40;2.20;;;;;;;;;;5055765;28;20618;-48
2021/01/24 06:13:34;;;;;;;2.40;2.20;;;;;;;;;;5060013;28;20187;-48
2021/01/24 06:16:07;;;;;;;2.63;2.35;;;;;;;;;;5055183;28;20184;-48
2021/01/24 06:18:41;;;;;;;2.20;2.00;;;;;;;;;;5055495;28;20206;-48
2021/01/24 06:21:08;;;;;;;2.38;2.13;;;;;;;;;;5073598;28;20181;-48
2021/01/24 06:23:37;;;;;;;2.53;2.30;;;;;;;;;;5063505;28;20197;-48
2021/01/24 06:26:06;;;;;;;4.05;2.58;;;;;;;;;;5074299;28;20178;-46
2021/01/24 06:28:34;;;;;;;5.28;2.10;;;;;;;;;;5055168;28;20192;-46
2021/01/24 06:31:01;;;;;;;4.70;2.30;;;;;;;;;;5085072;28;20438;-46
2021/01/24 06:33:27;;;;;;;3.67;2.55;;;;;;;;;;5072805;28;20178;-45
2021/01/24 06:36:03;;;;;;;7.57;2.28;;;;;;;;;;5074508;28;20585;-46
2021/01/24 06:38:30;;;;;;;6.82;3.08;;;;;;;;;;5074455;28;20217;-46
2021/01/24 06:40:57;;;;;;;18.65;2.80;;;;;;;;;;5075344;28;20186;-45
2021/01/24 06:43:43;;;;;;;10.98;3.00;;;;;;;;;;5068012;28;20236;-48
2021/01/24 06:46:32;;;;;;;7.95;2.90;;;;;;;;;;5074305;28;20217;-47
2021/01/24 06:48:58;;;;;;;3.40;2.10;;;;;;;;;;5061284;28;20262;-47
2021/01/24 06:51:41;;;;;;;13.02;3.20;;;;;;;;;;5054937;28;20225;-46
2021/01/24 06:54:26;;;;;;;9.35;2.53;;;;;;;;;;5068954;28;20568;-45
2021/01/24 06:56:52;;;;;;;8.10;2.53;;;;;;;;;;5071131;28;20248;-49
2021/01/24 06:59:30;;;;;;;8.32;2.20;;;;;;;;;;5074642;28;20206;-49
2021/01/24 07:02:15;;;;;;;7.55;2.63;;;;;;;;;;5071600;28;20243;-44
2021/01/24 07:04:42;;;;;;;7.15;2.30;;;;;;;;;;5054891;28;20190;-47
2021/01/24 07:07:10;;;;;;;4.78;2.28;;;;;;;;;;5058069;28;20185;-46
2021/01/24 07:09:41;;;;;;;4.97;2.15;;;;;;;;;;5068632;28;20183;-49
2021/01/24 07:12:07;;;;;;;4.45;2.22;;;;;;;;;;5059992;28;20461;-48
2021/01/24 07:14:36;;;;;;;8.52;2.95;;;;;;;;;;5073491;28;20925;-49
2021/01/24 07:17:09;;;;;;;5.22;2.28;;;;;;;;;;5062148;28;20179;-47
2021/01/24 07:19:38;;;;;;;4.28;2.33;;;;;;;;;;5071074;28;20578;-52
2021/01/24 07:22:05;;;;;;;5.47;2.53;;;;;;;;;;5054476;28;20183;-50
2021/01/24 07:24:31;;;;;;;5.95;2.50;;;;;;;;;;5056360;28;20175;-52
2021/01/24 07:26:57;;;;;;;9.02;2.63;;;;;;;;;;5054612;28;20448;-48
2021/01/24 07:29:24;;;;;;;14.02;2.60;;;;;;;;;;5057272;28;20197;-49
2021/01/24 07:31:50;;;;;;;12.07;2.05;;;;;;;;;;5069286;28;20273;-49
2021/01/24 07:34:19;;;;;;;6.68;2.28;;;;;;;;;;5073658;28;20301;-49
2021/01/24 07:36:48;;;;;;;4.53;2.10;;;;;;;;;;5071052;28;20189;-47
2021/01/24 07:39:15;;;;;;;6.00;1.92;;;;;;;;;;5053698;28;20203;-48
2021/01/24 07:41:42;;;;;;;4.47;1.90;;;;;;;;;;5056149;28;20258;-48
2021/01/24 07:44:08;;;;;;;3.05;1.67;;;;;;;;;;5061762;28;20836;-49
2021/01/24 07:46:34;;;;;;;7.45;2.25;;;;;;;;;;5053389;28;20477;-48
2021/01/24 07:49:00;;;;;;;6.72;1.83;;;;;;;;;;5053715;28;20175;-49
2021/01/24 07:51:26;;;;;;;2.97;2.00;;;;;;;;;;5072002;28;20190;-48
2021/01/24 07:53:52;;;;;;;3.97;1.75;;;;;;;;;;5073727;28;20205;-48
2021/01/24 07:56:18;;;;;;;2.15;1.80;;;;;;;;;;5060826;28;20912;-49
2021/01/24 07:58:45;;;;;;;2.80;1.88;;;;;;;;;;5067025;28;20202;-48
2021/01/24 08:01:12;;;;;;;4.18;2.28;;;;;;;;;;5073427;28;20194;-48
2021/01/24 08:03:39;;;;;;;9.77;3.28;;;;;;;;;;5058233;28;20210;-50
2021/01/24 08:06:08;;;;;;;5.97;2.88;;;;;;;;;;5053120;28;20198;-54
2021/01/24 08:08:35;;;;;;;5.70;2.60;;;;;;;;;;5068626;28;20565;-60
2021/01/24 08:11:01;;;;;;;5.72;2.60;;;;;;;;;;5073088;28;20615;-51
2021/01/24 08:13:27;;;;;;;4.07;2.22;;;;;;;;;;5072646;28;20209;-49
2021/01/24 08:15:53;;;;;;;6.20;1.98;;;;;;;;;;5072635;28;20179;-51
2021/01/24 08:18:20;;;;;;;4.60;2.00;;;;;;;;;;5074773;28;20208;-51
2021/01/24 08:20:46;;;;;;;4.47;2.22;;;;;;;;;;5060762;28;20228;-51
2021/01/24 08:23:12;;;;;;;4.45;2.03;;;;;;;;;;5053824;28;20218;-51
2021/01/24 08:25:41;;;;;;;5.55;2.13;;;;;;;;;;5057999;28;20181;-59
2021/01/24 08:28:11;;;;;;;7.18;2.10;;;;;;;;;;5070140;28;20533;-59
2021/01/24 08:30:40;;;;;;;6.43;2.13;;;;;;;;;;5054665;28;20183;-59
2021/01/24 08:33:10;;;;;;;4.68;2.03;;;;;;;;;;5071733;28;20244;-59
2021/01/24 08:35:36;;;;;;;5.32;2.00;;;;;;;;;;5070510;28;20183;-60
2021/01/24 08:38:03;;;;;;;5.10;2.15;;;;;;;;;;5053626;28;20194;-54
2021/01/24 08:40:32;;;;;;;4.85;2.00;;;;;;;;;;5054732;28;20287;-54
2021/01/24 08:42:58;;;;;;;4.00;2.00;;;;;;;;;;5060026;28;20582;-54
2021/01/24 08:45:25;;;;;;;17.45;3.10;;;;;;;;;;5067620;28;20190;-55
2021/01/24 08:47:53;;;;;;;13.23;2.60;;;;;;;;;;5073055;28;20483;-55
2021/01/24 08:50:19;;;;;;;17.77;3.25;;;;;;;;;;5064048;28;20179;-55
2021/01/24 08:52:45;;;;;;;8.68;2.67;;;;;;;;;;5064676;28;20187;-55
2021/01/24 08:55:11;;;;;;;7.93;2.65;;;;;;;;;;5056986;28;20424;-55
2021/01/24 08:57:37;;;;;;;9.55;2.60;;;;;;;;;;5055114;28;20179;-55
2021/01/24 09:00:12;;;;;;;10.18;2.42;;;;;;;;;;5057597;28;20483;-55
2021/01/24 09:02:39;;;;;;;5.32;1.92;;;;;;;;;;5061716;28;20272;-55
2021/01/24 09:05:08;;;;;;;9.80;2.78;;;;;;;;;;5074646;28;20581;-55
2021/01/24 09:07:38;;;;;;;9.52;2.17;;;;;;;;;;5066697;28;20179;-55
2021/01/24 09:10:13;;;;;;;4.78;2.10;;;;;;;;;;5056505;28;20179;-55
2021/01/24 09:12:40;;;;;;;3.83;2.03;;;;;;;;;;5057129;28;20183;-55
2021/01/24 09:15:06;;;;;;;3.70;2.00;;;;;;;;;;5074746;28;20269;-55
2021/01/24 09:17:32;;;;;;;10.27;2.28;;;;;;;;;;5065664;28;20183;-55
2021/01/24 09:19:58;;;;;;;5.03;1.92;;;;;;;;;;5064391;28;20465;-55
2021/01/24 09:22:24;;;;;;;2.67;1.38;;;;;;;;;;5075150;28;20206;-55
2021/01/24 09:24:50;;;;;;;3.83;1.55;;;;;;;;;;5059208;28;20504;-55
2021/01/24 09:27:16;;;;;;;1.52;1.30;;;;;;;;;;5063564;28;20190;-54
2021/01/24 09:29:43;;;;;;;4.53;1.48;;;;;;;;;;5076606;28;20186;-54
2021/01/24 09:32:09;;;;;;;3.72;1.27;;;;;;;;;;5067017;28;20194;-54
2021/01/24 09:34:36;;;;;;;3.00;1.13;;;;;;;;;;5069276;28;20684;-54
2021/01/24 09:37:02;;;;;;;3.22;1.25;;;;;;;;;;5066138;28;20226;-55
2021/01/24 09:39:28;;;;;;;1.63;1.35;;;;;;;;;;5063575;28;20286;-54
2021/01/24 09:41:54;;;;;;;2.08;1.20;;;;;;;;;;5063984;28;20186;-54
2021/01/24 09:44:21;;;;;;;1.30;1.10;;;;;;;;;;5063627;28;20193;-54
2021/01/24 09:46:47;;;;;;;3.38;1.27;;;;;;;;;;5070264;28;20190;-54
2021/01/24 09:49:13;;;;;;;1.50;1.15;;;;;;;;;;5057052;28;20672;-54
2021/01/24 09:51:39;;;;;;;1.65;1.33;;;;;;;;;;5066163;28;20629;-54
2021/01/24 09:54:05;;;;;;;1.98;1.27;;;;;;;;;;5060750;28;20214;-54
2021/01/24 09:56:31;;;;;;;1.85;1.15;;;;;;;;;;5055750;28;20260;-54
2021/01/24 09:58:58;;;;;;;2.88;1.17;;;;;;;;;;5055905;28;20206;-54
2021/01/24 10:01:25;;;;;;;1.85;1.20;;;;;;;;;;5061698;28;20190;-54
2021/01/24 10:03:51;;;;;;;3.72;1.25;;;;;;;;;;5058450;28;20593;-54
2021/01/24 10:06:18;;;;;;;2.83;1.52;;;;;;;;;;5055030;28;20183;-55
2021/01/24 10:08:44;;;;;;;3.83;1.30;;;;;;;;;;5073611;28;20495;-54
2021/01/24 10:11:10;;;;;;;2.67;1.02;;;;;;;;;;5075723;28;20186;-55
2021/01/24 10:13:36;;;;;;;3.47;1.70;;;;;;;;;;5072517;28;20194;-55
2021/01/24 10:16:02;;;;;;;0.90;0.85;;;;;;;;;;5055060;28;20630;-54
2021/01/24 10:18:28;;;;;;;2.60;1.20;;;;;;;;;;5071594;28;20255;-54
2021/01/24 10:20:54;;;;;;;1.70;1.15;;;;;;;;;;5060156;28;20969;-54
2021/01/24 10:23:21;;;;;;;3.28;1.30;;;;;;;;;;5070315;28;20204;-54
2021/01/24 10:25:52;;;;;;;1.42;1.10;;;;;;;;;;5058996;28;20178;-54
2021/01/24 10:28:18;;;;;;;2.10;1.20;;;;;;;;;;5074607;28;20265;-54
2021/01/24 10:30:48;;;;;;;1.67;1.20;;;;;;;;;;5075541;28;20257;-54
2021/01/24 10:33:14;;;;;;;1.73;0.98;;;;;;;;;;5074105;28;20229;-55
2021/01/24 10:35:40;;;;;;;2.28;1.20;;;;;;;;;;5057052;28;20578;-55
2021/01/24 10:38:07;;;;;;;4.60;1.10;;;;;;;;;;5056626;28;20236;-55
2021/01/24 10:40:34;;;;;;;1.70;1.27;;;;;;;;;;5061286;28;20238;-55
2021/01/24 10:43:02;;;;;;;3.70;0.98;;;;;;;;;;5073590;28;20266;-55
2021/01/24 10:45:28;;;;;;;3.10;1.08;;;;;;;;;;5074084;28;20497;-55
2021/01/24 10:47:54;;;;;;;1.38;0.90;;;;;;;;;;5070668;28;20298;-55
2021/01/24 10:50:20;;;;;;;1.35;1.08;;;;;;;;;;5064114;28;20202;-55
2021/01/24 10:52:46;;;;;;;2.47;1.15;;;;;;;;;;5069910;28;20187;-55
2021/01/24 10:55:12;;;;;;;4.47;1.45;;;;;;;;;;5066581;28;20175;-55
2021/01/24 10:57:38;;;;;;;2.38;1.10;;;;;;;;;;5061755;28;20184;-55
2021/01/24 11:00:06;;;;;;;2.03;1.40;;;;;;;;;;5061968;28;20635;-55
2021/01/24 11:02:32;;;;;;;3.10;1.30;;;;;;;;;;5061713;28;20454;-56
2021/01/24 11:04:58;;;;;;;1.40;1.02;;;;;;;;;;5063429;28;20203;-56
2021/01/24 11:07:25;;;;;;;4.47;1.60;;;;;;;;;;5055620;28;20179;-56
2021/01/24 11:09:51;;;;;;;1.08;0.88;;;;;;;;;;5066053;28;20480;-56
2021/01/24 11:12:17;;;;;;;2.08;1.20;;;;;;;;;;5068553;28;20182;-56
2021/01/24 11:14:43;;;;;;;2.67;1.17;;;;;;;;;;5059544;28;20433;-56
2021/01/24 11:17:09;;;;;;;3.20;1.27;;;;;;;;;;5073849;28;20179;-56
2021/01/24 11:19:37;;;;;;;1.52;1.00;;;;;;;;;;5069205;28;20282;-56
2021/01/24 11:22:03;;;;;;;2.35;1.35;;;;;;;;;;5055878;28;20179;-56
2021/01/24 11:24:29;;;;;;;2.88;1.15;;;;;;;;;;5054171;28;20553;-57
2021/01/24 11:26:55;;;;;;;2.63;1.30;;;;;;;;;;5063745;28;20451;-57
2021/01/24 11:29:21;;;;;;;1.63;1.20;;;;;;;;;;5053816;28;20175;-57
2021/01/24 11:31:47;;;;;;;2.30;1.00;;;;;;;;;;5054634;28;20294;-57
2021/01/24 11:34:13;;;;;;;1.48;1.20;;;;;;;;;;5057661;28;20186;-57
2021/01/24 11:36:39;;;;;;;3.22;1.25;;;;;;;;;;5061883;28;20199;-57
2021/01/24 11:39:06;;;;;;;1.33;1.00;;;;;;;;;;5068180;28;20194;-57
2021/01/24 11:41:32;;;;;;;3.40;1.00;;;;;;;;;;5072573;28;20224;-57
2021/01/24 11:43:58;;;;;;;2.75;1.10;;;;;;;;;;5054889;28;20270;-57
2021/01/24 11:46:24;;;;;;;3.88;1.08;;;;;;;;;;5066154;28;20209;-57
2021/01/24 11:48:50;;;;;;;1.73;1.30;;;;;;;;;;5057469;28;20214;-57
2021/01/24 11:51:15;;;;;;;2.80;1.27;;;;;;;;;;5070601;28;20202;-56
2021/01/24 11:53:42;;;;;;;2.20;1.15;;;;;;;;;;5066453;28;20542;-57
2021/01/24 11:56:08;;;;;;;4.25;1.27;;;;;;;;;;5053480;28;20578;-57
2021/01/24 11:58:34;;;;;;;7.05;1.45;;;;;;;;;;5063780;28;20278;-57
2021/01/24 12:01:00;;;;;;;3.78;1.75;;;;;;;;;;5057536;28;20282;-57
2021/01/24 12:03:26;;;;;;;4.32;1.75;;;;;;;;;;5064932;28;20186;-57
2021/01/24 12:05:52;;;;;;;5.97;3.90;;;;;;;;;;5073043;28;20177;-57
2021/01/24 12:08:18;;;;;;;8.80;4.22;;;;;;;;;;5062434;28;20211;-57
2021/01/24 12:10:44;;;;;;;8.70;3.67;;;;;;;;;;5065118;28;20232;-57
2021/01/24 12:13:10;;;;;;;10.20;4.95;;;;;;;;;;5061889;28;20179;-57
2021/01/24 12:15:36;;;;;;;7.45;3.92;;;;;;;;;;5071160;28;20236;-57
2021/01/24 12:18:02;;;;;;;8.05;4.57;;;;;;;;;;5067600;28;20224;-57
2021/01/24 12:20:28;;;;;;;7.00;4.50;;;;;;;;;;5058962;28;20238;-57
2021/01/24 12:22:54;;;;;;;8.23;4.10;;;;;;;;;;5064161;28;20457;-57
2021/01/24 12:25:20;;;;;;;6.30;3.70;;;;;;;;;;5072689;28;20182;-57
2021/01/24 12:27:46;;;;;;;8.00;4.20;;;;;;;;;;5067914;28;20194;-57
2021/01/24 12:30:13;;;;;;;5.63;3.63;;;;;;;;;;5065733;28;20193;-57
2021/01/24 12:32:39;;;;;;;6.05;3.70;;;;;;;;;;5061271;28;20492;-57
2021/01/24 12:35:06;;;;;;;4.15;3.17;;;;;;;;;;5066934;28;20598;-57
2021/01/24 12:37:32;;;;;;;5.72;3.10;;;;;;;;;;5066830;28;20186;-57
2021/01/24 12:39:58;;;;;;;4.50;3.05;;;;;;;;;;5067260;28;20206;-58
2021/01/24 12:42:24;;;;;;;8.57;3.30;;;;;;;;;;5063692;28;20178;-57
2021/01/24 12:44:50;;;;;;;6.97;2.58;;;;;;;;;;5073046;28;20214;-57
2021/01/24 12:47:16;;;;;;;4.55;2.00;;;;;;;;;;5058340;28;20241;-57
2021/01/24 12:49:42;;;;;;;4.10;2.40;;;;;;;;;;5068479;28;20508;-57
2021/01/24 12:52:08;;;;;;;2.88;2.13;;;;;;;;;;5068062;28;20268;-57
2021/01/24 12:54:34;;;;;;;5.85;2.85;;;;;;;;;;5058979;28;20179;-57
2021/01/24 12:57:00;;;;;;;9.52;2.90;;;;;;;;;;5061405;28;20304;-57
2021/01/24 12:59:26;;;;;;;8.68;2.65;;;;;;;;;;5075229;28;20297;-57
2021/01/24 13:01:55;;;;;;;5.57;2.85;;;;;;;;;;5069887;28;20187;-57
2021/01/24 13:04:21;;;;;;;5.75;2.75;;;;;;;;;;5063526;28;20190;-57
2021/01/24 13:06:48;;;;;;;7.53;2.40;;;;;;;;;;5057255;28;20175;-58
2021/01/24 13:09:15;;;;;;;7.80;2.90;;;;;;;;;;5067451;28;20190;-58
2021/01/24 13:11:42;;;;;;;6.45;2.88;;;;;;;;;;5068836;28;20212;-59
2021/01/24 13:14:08;;;;;;;7.43;3.20;;;;;;;;;;5076537;28;20194;-58
2021/01/24 13:16:34;;;;;;;8.13;3.67;;;;;;;;;;5061067;28;20190;-58
2021/01/24 13:19:00;;;;;;;8.00;3.88;;;;;;;;;;5060334;28;20210;-58
2021/01/24 13:21:26;;;;;;;5.82;3.80;;;;;;;;;;5070701;28;20210;-58
2021/01/24 13:23:53;;;;;;;7.60;3.25;;;;;;;;;;5071721;28;20178;-58
2021/01/24 13:26:19;;;;;;;4.88;2.97;;;;;;;;;;5063728;28;20484;-58
2021/01/24 13:28:45;;;;;;;7.40;2.90;;;;;;;;;;5072795;28;20187;-58
2021/01/24 13:31:11;;;;;;;11.65;3.38;;;;;;;;;;5076387;28;20589;-58
2021/01/24 13:33:37;;;;;;;7.07;3.42;;;;;;;;;;5075581;28;20269;-58
2021/01/24 13:36:03;;;;;;;5.55;2.90;;;;;;;;;;5061305;28;20777;-58
2021/01/24 13:38:29;;;;;;;5.43;2.97;;;;;;;;;;5056841;28;20198;-58
2021/01/24 13:40:55;;;;;;;7.25;2.72;;;;;;;;;;5070838;28;20497;-58
2021/01/24 13:43:21;;;;;;;8.93;2.70;;;;;;;;;;5060002;28;20209;-58
2021/01/24 13:45:47;;;;;;;9.38;2.95;;;;;;;;;;5058154;28;20210;-59
2021/01/24 13:48:13;;;;;;;8.40;2.80;;;;;;;;;;5055306;28;20185;-59
2021/01/24 13:50:39;;;;;;;8.93;2.65;;;;;;;;;;5065908;28;20207;-59
2021/01/24 13:53:05;;;;;;;7.05;3.05;;;;;;;;;;5068666;28;20191;-59
2021/01/24 13:55:31;;;;;;;7.20;2.58;;;;;;;;;;5058103;28;20218;-59
2021/01/24 13:57:57;;;;;;;12.93;2.55;;;;;;;;;;5074629;28;20206;-59
2021/01/24 14:00:23;;;;;;;13.85;3.13;;;;;;;;;;5064317;28;20587;-59
2021/01/24 14:02:49;;;;;;;4.93;2.15;;;;;;;;;;5072491;28;20198;-59
2021/01/24 14:05:15;;;;;;;6.03;2.03;;;;;;;;;;5064419;28;20214;-59
2021/01/24 14:07:41;;;;;;;5.50;2.20;;;;;;;;;;5056901;28;20179;-59
2021/01/24 14:10:07;;;;;;;6.85;2.78;;;;;;;;;;5073210;28;20186;-59
2021/01/24 14:12:33;;;;;;;7.68;2.42;;;;;;;;;;5063533;28;20201;-59
2021/01/24 14:14:59;;;;;;;4.90;2.50;;;;;;;;;;5055500;28;20183;-59
2021/01/24 14:17:25;;;;;;;6.93;2.25;;;;;;;;;;5062255;28;20183;-59
2021/01/24 14:19:51;;;;;;;5.50;2.53;;;;;;;;;;5066593;28;20492;-59
2021/01/24 14:22:17;;;;;;;5.47;2.10;;;;;;;;;;5069221;28;20186;-59
2021/01/24 14:24:44;;;;;;;6.57;2.50;;;;;;;;;;5055433;28;20186;-59
2021/01/24 14:27:10;;;;;;;5.60;2.55;;;;;;;;;;5060372;28;20178;-59
2021/01/24 14:29:36;;;;;;;4.22;2.10;;;;;;;;;;5074848;28;20223;-59
2021/01/24 14:32:02;;;;;;;6.82;2.13;;;;;;;;;;5072490;28;20179;-59
2021/01/24 14:34:28;;;;;;;7.25;2.10;;;;;;;;;;5054955;28;20183;-59
2021/01/24 14:36:54;;;;;;;3.28;2.05;;;;;;;;;;5057882;28;20276;-59
2021/01/24 14:39:20;;;;;;;4.55;2.10;;;;;;;;;;5056068;28;20241;-59
2021/01/24 14:41:46;;;;;;;3.08;1.90;;;;;;;;;;5055413;28;20198;-59